SHT8L EGPH-EIDW
Flight info
| Callsign | SHT8L |
|---|---|
| Flight time | 0h 37m |
| Altitude | 22000 |
| Route | GOSAM P600 TRN/N0401F240 DCT BLACA P620 NIMAT NIMAT4L |
| Aircraft | A320/M-SDE3FGHIRWY/LB1 |
Departure
| Time | 2026-05-07 17:51 |
|---|---|
| Airport | Edinburgh Airport (EGPH) |
Arrival
| Time | 2026-05-07 18:28 |
|---|---|
| Airport | Dublin Airport (EIDW) |
| Time | Latitude | Longitude | Altitude | Speed | Heading |
|---|---|---|---|---|---|
| 2026-05-07 17:31 | 55.94848 | -3.35872 | 117 ft | 0 kts | 208° |
| 2026-05-07 17:38 | 55.94848 | -3.35871 | 117 ft | 0 kts | 208° |
| 2026-05-07 17:42 | 55.94849 | -3.35871 | 117 ft | 0 kts | 208° |
| 2026-05-07 17:44 | 55.94862 | -3.35859 | 114 ft | 4 kts | 208° |
| 2026-05-07 17:45 | 55.94881 | -3.35840 | 114 ft | 3 kts | 210° |
| 2026-05-07 17:45 | 55.94900 | -3.35810 | 114 ft | 4 kts | 248° |
| 2026-05-07 17:45 | 55.94903 | -3.35766 | 114 ft | 4 kts | 293° |
| 2026-05-07 17:45 | 55.94901 | -3.35758 | 114 ft | 3 kts | 298° |
| 2026-05-07 17:46 | 55.94901 | -3.35757 | 114 ft | 0 kts | 298° |
| 2026-05-07 17:48 | 55.94907 | -3.35774 | 114 ft | 4 kts | 298° |
| 2026-05-07 17:48 | 55.94932 | -3.35846 | 116 ft | 9 kts | 313° |
| 2026-05-07 17:48 | 55.95012 | -3.35833 | 116 ft | 16 kts | 29° |
| 2026-05-07 17:48 | 55.95106 | -3.35818 | 114 ft | 11 kts | 291° |
| 2026-05-07 17:49 | 55.95159 | -3.35945 | 114 ft | 15 kts | 327° |
| 2026-05-07 17:49 | 55.95255 | -3.35933 | 114 ft | 17 kts | 54° |
| 2026-05-07 17:49 | 55.95319 | -3.35733 | 115 ft | 20 kts | 55° |
| 2026-05-07 17:49 | 55.95389 | -3.35528 | 114 ft | 20 kts | 59° |
| 2026-05-07 17:50 | 55.95469 | -3.35405 | 115 ft | 8 kts | 341° |
| 2026-05-07 17:50 | 55.95536 | -3.35487 | 114 ft | 19 kts | 326° |
| 2026-05-07 17:50 | 55.95532 | -3.35671 | 113 ft | 16 kts | 239° |
| 2026-05-07 17:50 | 55.95391 | -3.36086 | 110 ft | 77 kts | 240° |
| 2026-05-07 17:51 | 55.94997 | -3.37244 | 166 ft | 133 kts | 236° |
| 2026-05-07 17:51 | 55.94534 | -3.38674 | 946 ft | 133 kts | 237° |
| 2026-05-07 17:51 | 55.94055 | -3.40114 | 1655 ft | 141 kts | 234° |
| 2026-05-07 17:51 | 55.93496 | -3.41701 | 2159 ft | 161 kts | 235° |
| 2026-05-07 17:52 | 55.92868 | -3.43508 | 2661 ft | 184 kts | 236° |
| 2026-05-07 17:52 | 55.92155 | -3.45592 | 3290 ft | 208 kts | 236° |
| 2026-05-07 17:52 | 55.91370 | -3.47846 | 4245 ft | 218 kts | 236° |
| 2026-05-07 17:52 | 55.90613 | -3.50196 | 5318 ft | 225 kts | 245° |
| 2026-05-07 17:53 | 55.90240 | -3.52955 | 6428 ft | 233 kts | 257° |
| 2026-05-07 17:53 | 55.89969 | -3.55813 | 7550 ft | 236 kts | 257° |
| 2026-05-07 17:53 | 55.89680 | -3.58707 | 8691 ft | 238 kts | 257° |
| 2026-05-07 17:53 | 55.89383 | -3.61627 | 9761 ft | 246 kts | 257° |
| 2026-05-07 17:54 | 55.89055 | -3.64772 | 10298 ft | 269 kts | 257° |
| 2026-05-07 17:54 | 55.88705 | -3.68163 | 10957 ft | 284 kts | 257° |
| 2026-05-07 17:54 | 55.88349 | -3.71682 | 11795 ft | 293 kts | 257° |
| 2026-05-07 17:54 | 55.87992 | -3.75284 | 12724 ft | 297 kts | 257° |
| 2026-05-07 17:55 | 55.87629 | -3.78923 | 13750 ft | 299 kts | 257° |
| 2026-05-07 17:55 | 55.87264 | -3.82597 | 14602 ft | 304 kts | 257° |
| 2026-05-07 17:55 | 55.86898 | -3.86326 | 15430 ft | 308 kts | 257° |
| 2026-05-07 17:55 | 55.86524 | -3.90105 | 16236 ft | 313 kts | 256° |
| 2026-05-07 17:56 | 55.86142 | -3.93952 | 17048 ft | 317 kts | 256° |
| 2026-05-07 17:56 | 55.85752 | -3.97842 | 17868 ft | 322 kts | 256° |
| 2026-05-07 17:56 | 55.85352 | -4.01788 | 18614 ft | 326 kts | 256° |
| 2026-05-07 17:56 | 55.84946 | -4.05777 | 19341 ft | 330 kts | 256° |
| 2026-05-07 17:57 | 55.84469 | -4.09782 | 20082 ft | 331 kts | 248° |
| 2026-05-07 17:57 | 55.83869 | -4.12231 | 20539 ft | 330 kts | 237° |
| 2026-05-07 17:57 | 55.81832 | -4.16314 | 21462 ft | 331 kts | 216° |
| 2026-05-07 17:57 | 55.79938 | -4.18728 | 21859 ft | 342 kts | 215° |
| 2026-05-07 17:58 | 55.77942 | -4.21242 | 21940 ft | 361 kts | 214° |
| 2026-05-07 17:58 | 55.75856 | -4.23838 | 21948 ft | 381 kts | 214° |
| 2026-05-07 17:58 | 55.73637 | -4.26579 | 21946 ft | 393 kts | 214° |
| 2026-05-07 17:58 | 55.71380 | -4.29364 | 21946 ft | 396 kts | 214° |
| 2026-05-07 17:59 | 55.69112 | -4.32164 | 21945 ft | 398 kts | 214° |
| 2026-05-07 17:59 | 55.66847 | -4.34963 | 21944 ft | 398 kts | 214° |
| 2026-05-07 17:59 | 55.64574 | -4.37773 | 21947 ft | 398 kts | 214° |
| 2026-05-07 17:59 | 55.62301 | -4.40573 | 21944 ft | 398 kts | 213° |
| 2026-05-07 18:00 | 55.59860 | -4.42872 | 21946 ft | 398 kts | 205° |
| 2026-05-07 18:00 | 55.57342 | -4.44932 | 21946 ft | 399 kts | 205° |
| 2026-05-07 18:00 | 55.54822 | -4.46979 | 21948 ft | 399 kts | 205° |
| 2026-05-07 18:00 | 55.52298 | -4.49022 | 21950 ft | 399 kts | 205° |
| 2026-05-07 18:01 | 55.49775 | -4.51065 | 21948 ft | 399 kts | 205° |
| 2026-05-07 18:01 | 55.47249 | -4.53106 | 21946 ft | 399 kts | 205° |
| 2026-05-07 18:01 | 55.44729 | -4.55135 | 21949 ft | 400 kts | 205° |
| 2026-05-07 18:01 | 55.42196 | -4.57175 | 21945 ft | 400 kts | 205° |
| 2026-05-07 18:02 | 55.37134 | -4.61242 | 21940 ft | 400 kts | 205° |
| 2026-05-07 18:02 | 55.34606 | -4.63267 | 21942 ft | 400 kts | 205° |
| 2026-05-07 18:02 | 55.32073 | -4.65293 | 21946 ft | 400 kts | 205° |
| 2026-05-07 18:03 | 55.29539 | -4.67313 | 21951 ft | 400 kts | 205° |
| 2026-05-07 18:03 | 55.27003 | -4.69334 | 21947 ft | 401 kts | 205° |
| 2026-05-07 18:03 | 55.24464 | -4.71358 | 21945 ft | 401 kts | 205° |
| 2026-05-07 18:03 | 55.21927 | -4.73382 | 21941 ft | 401 kts | 205° |
| 2026-05-07 18:04 | 55.19387 | -4.75409 | 21944 ft | 401 kts | 205° |
| 2026-05-07 18:04 | 55.16845 | -4.77434 | 21945 ft | 402 kts | 205° |
| 2026-05-07 18:04 | 55.14303 | -4.79455 | 21952 ft | 402 kts | 205° |
| 2026-05-07 18:04 | 55.11759 | -4.81472 | 21946 ft | 402 kts | 205° |
| 2026-05-07 18:05 | 55.09209 | -4.83489 | 21953 ft | 402 kts | 205° |
| 2026-05-07 18:05 | 55.06664 | -4.85498 | 21952 ft | 402 kts | 205° |
| 2026-05-07 18:05 | 55.04112 | -4.87504 | 21950 ft | 402 kts | 205° |
| 2026-05-07 18:05 | 55.01563 | -4.89507 | 21946 ft | 402 kts | 205° |
| 2026-05-07 18:06 | 54.99009 | -4.91513 | 21948 ft | 403 kts | 205° |
| 2026-05-07 18:06 | 54.96461 | -4.93510 | 21954 ft | 403 kts | 205° |
| 2026-05-07 18:06 | 54.93897 | -4.95520 | 21948 ft | 403 kts | 205° |
| 2026-05-07 18:06 | 54.91345 | -4.97523 | 21949 ft | 403 kts | 205° |
| 2026-05-07 18:07 | 54.88823 | -4.99499 | 21947 ft | 403 kts | 205° |
| 2026-05-07 18:07 | 54.86260 | -5.01503 | 21947 ft | 403 kts | 205° |
| 2026-05-07 18:07 | 54.83703 | -5.03498 | 21943 ft | 403 kts | 205° |
| 2026-05-07 18:07 | 54.81142 | -5.05490 | 21955 ft | 403 kts | 205° |
| 2026-05-07 18:08 | 54.78579 | -5.07483 | 21952 ft | 403 kts | 205° |
| 2026-05-07 18:08 | 54.76019 | -5.09475 | 21950 ft | 403 kts | 205° |
| 2026-05-07 18:08 | 54.73465 | -5.11456 | 21951 ft | 403 kts | 205° |
| 2026-05-07 18:08 | 54.70895 | -5.13443 | 21948 ft | 404 kts | 205° |
| 2026-05-07 18:09 | 54.68335 | -5.15419 | 21952 ft | 404 kts | 205° |
| 2026-05-07 18:09 | 54.65765 | -5.17400 | 21941 ft | 404 kts | 205° |
| 2026-05-07 18:09 | 54.63201 | -5.19377 | 21949 ft | 404 kts | 205° |
| 2026-05-07 18:09 | 54.60637 | -5.21352 | 21952 ft | 404 kts | 205° |
| 2026-05-07 18:10 | 54.58069 | -5.23326 | 21949 ft | 404 kts | 205° |
| 2026-05-07 18:10 | 54.55500 | -5.25281 | 21953 ft | 404 kts | 204° |
| 2026-05-07 18:10 | 54.52889 | -5.27088 | 21699 ft | 405 kts | 202° |
| 2026-05-07 18:10 | 54.50275 | -5.28731 | 21186 ft | 394 kts | 201° |
| 2026-05-07 18:11 | 54.47719 | -5.30247 | 20747 ft | 386 kts | 200° |
| 2026-05-07 18:11 | 54.46038 | -5.31227 | 20460 ft | 384 kts | 200° |
| 2026-05-07 18:11 | 54.42673 | -5.33196 | 19886 ft | 380 kts | 200° |
| 2026-05-07 18:11 | 54.40179 | -5.34683 | 19464 ft | 378 kts | 201° |
| 2026-05-07 18:12 | 54.37705 | -5.36183 | 19050 ft | 376 kts | 201° |
| 2026-05-07 18:12 | 54.35252 | -5.37688 | 18642 ft | 374 kts | 201° |
| 2026-05-07 18:12 | 54.32811 | -5.39193 | 18227 ft | 372 kts | 201° |
| 2026-05-07 18:12 | 54.30417 | -5.40669 | 17760 ft | 370 kts | 201° |
| 2026-05-07 18:13 | 54.28005 | -5.42152 | 17308 ft | 367 kts | 201° |
| 2026-05-07 18:13 | 54.25605 | -5.43620 | 16853 ft | 365 kts | 201° |
| 2026-05-07 18:13 | 54.23222 | -5.45074 | 16407 ft | 363 kts | 201° |
| 2026-05-07 18:13 | 54.20846 | -5.46522 | 15958 ft | 361 kts | 201° |
| 2026-05-07 18:14 | 54.18490 | -5.47958 | 15522 ft | 359 kts | 201° |
| 2026-05-07 18:14 | 54.16144 | -5.49385 | 15097 ft | 357 kts | 201° |
| 2026-05-07 18:14 | 54.13816 | -5.50801 | 14686 ft | 355 kts | 201° |
| 2026-05-07 18:14 | 54.11496 | -5.52208 | 14259 ft | 353 kts | 201° |
| 2026-05-07 18:15 | 54.09185 | -5.53606 | 13845 ft | 351 kts | 201° |
| 2026-05-07 18:15 | 54.06887 | -5.54993 | 13395 ft | 349 kts | 201° |
| 2026-05-07 18:15 | 54.04603 | -5.56371 | 12938 ft | 347 kts | 201° |
| 2026-05-07 18:15 | 54.02331 | -5.57740 | 12484 ft | 346 kts | 201° |
| 2026-05-07 18:16 | 54.00070 | -5.59101 | 12030 ft | 344 kts | 201° |
| 2026-05-07 18:16 | 53.97824 | -5.60451 | 11614 ft | 342 kts | 201° |
| 2026-05-07 18:16 | 53.95588 | -5.61797 | 11224 ft | 340 kts | 201° |
| 2026-05-07 18:16 | 53.93364 | -5.63134 | 10852 ft | 338 kts | 201° |
| 2026-05-07 18:17 | 53.91154 | -5.64458 | 10480 ft | 336 kts | 201° |
| 2026-05-07 18:17 | 53.88956 | -5.65773 | 10115 ft | 334 kts | 201° |
| 2026-05-07 18:17 | 53.86769 | -5.67079 | 9736 ft | 332 kts | 200° |
| 2026-05-07 18:17 | 53.84644 | -5.68346 | 9338 ft | 322 kts | 201° |
| 2026-05-07 18:18 | 53.82560 | -5.69586 | 8938 ft | 313 kts | 201° |
| 2026-05-07 18:18 | 53.80531 | -5.70792 | 8536 ft | 306 kts | 200° |
| 2026-05-07 18:18 | 53.78544 | -5.71977 | 8167 ft | 299 kts | 200° |
| 2026-05-07 18:18 | 53.76607 | -5.73132 | 7879 ft | 292 kts | 201° |
| 2026-05-07 18:19 | 53.74706 | -5.74266 | 7594 ft | 290 kts | 201° |
| 2026-05-07 18:19 | 53.72810 | -5.75396 | 7315 ft | 288 kts | 201° |
| 2026-05-07 18:19 | 53.70924 | -5.76518 | 7037 ft | 286 kts | 201° |
| 2026-05-07 18:19 | 53.69051 | -5.77629 | 6763 ft | 285 kts | 201° |
| 2026-05-07 18:20 | 53.67187 | -5.78735 | 6491 ft | 281 kts | 201° |
| 2026-05-07 18:20 | 53.65366 | -5.79814 | 6229 ft | 273 kts | 200° |
| 2026-05-07 18:20 | 53.63601 | -5.80857 | 5973 ft | 266 kts | 201° |
| 2026-05-07 18:20 | 53.61876 | -5.81875 | 5736 ft | 259 kts | 201° |
| 2026-05-07 18:21 | 53.60225 | -5.82851 | 5499 ft | 243 kts | 201° |
| 2026-05-07 18:21 | 53.58675 | -5.83764 | 5266 ft | 229 kts | 201° |
| 2026-05-07 18:21 | 53.57184 | -5.84641 | 5033 ft | 226 kts | 201° |
| 2026-05-07 18:21 | 53.55831 | -5.85893 | 4809 ft | 221 kts | 219° |
| 2026-05-07 18:22 | 53.54619 | -5.87480 | 4579 ft | 221 kts | 219° |
| 2026-05-07 18:22 | 53.54227 | -5.87995 | 4498 ft | 219 kts | 219° |
| 2026-05-07 18:22 | 53.52262 | -5.90586 | 4139 ft | 209 kts | 219° |
| 2026-05-07 18:22 | 53.51132 | -5.92079 | 3929 ft | 205 kts | 219° |
| 2026-05-07 18:23 | 53.50010 | -5.93559 | 3720 ft | 205 kts | 219° |
| 2026-05-07 18:23 | 53.48895 | -5.95027 | 3532 ft | 203 kts | 219° |
| 2026-05-07 18:23 | 53.47794 | -5.96476 | 3382 ft | 204 kts | 219° |
| 2026-05-07 18:23 | 53.46680 | -5.97943 | 3228 ft | 203 kts | 219° |
| 2026-05-07 18:24 | 53.45575 | -5.99391 | 3073 ft | 198 kts | 219° |
| 2026-05-07 18:24 | 53.44508 | -6.00785 | 2914 ft | 190 kts | 219° |
| 2026-05-07 18:24 | 53.43491 | -6.02115 | 2791 ft | 181 kts | 219° |
| 2026-05-07 18:24 | 53.42509 | -6.03401 | 2634 ft | 178 kts | 219° |
| 2026-05-07 18:25 | 53.41635 | -6.04836 | 2527 ft | 175 kts | 234° |
| 2026-05-07 18:25 | 53.41148 | -6.06645 | 2378 ft | 170 kts | 253° |
| 2026-05-07 18:25 | 53.41070 | -6.07951 | 2264 ft | 170 kts | 267° |
| 2026-05-07 18:25 | 53.41172 | -6.09882 | 2048 ft | 164 kts | 271° |
| 2026-05-07 18:26 | 53.41281 | -6.11765 | 1837 ft | 162 kts | 271° |
| 2026-05-07 18:26 | 53.41387 | -6.13632 | 1614 ft | 160 kts | 271° |
| 2026-05-07 18:26 | 53.41491 | -6.15463 | 1394 ft | 151 kts | 271° |
| 2026-05-07 18:26 | 53.41585 | -6.17131 | 1175 ft | 137 kts | 271° |
| 2026-05-07 18:27 | 53.41673 | -6.18671 | 965 ft | 130 kts | 273° |
| 2026-05-07 18:27 | 53.41761 | -6.20184 | 798 ft | 131 kts | 271° |
| 2026-05-07 18:27 | 53.41836 | -6.21734 | 637 ft | 135 kts | 274° |
| 2026-05-07 18:27 | 53.41928 | -6.23310 | 433 ft | 137 kts | 272° |
| 2026-05-07 18:28 | 53.42014 | -6.24875 | 292 ft | 134 kts | 273° |
| 2026-05-07 18:28 | 53.42096 | -6.26374 | 214 ft | 119 kts | 274° |
| 2026-05-07 18:28 | 53.42158 | -6.27478 | 213 ft | 70 kts | 275° |
| 2026-05-07 18:28 | 53.42244 | -6.27983 | 215 ft | 28 kts | 301° |
| 2026-05-07 18:29 | 53.42352 | -6.28103 | 220 ft | 17 kts | 57° |
| 2026-05-07 18:29 | 53.42354 | -6.27879 | 211 ft | 21 kts | 94° |
| 2026-05-07 18:29 | 53.42340 | -6.27604 | 211 ft | 26 kts | 95° |
| 2026-05-07 18:29 | 53.42322 | -6.27327 | 220 ft | 24 kts | 96° |
| 2026-05-07 18:30 | 53.42309 | -6.27105 | 213 ft | 19 kts | 96° |
| 2026-05-07 18:30 | 53.42298 | -6.26866 | 211 ft | 21 kts | 95° |
| 2026-05-07 18:30 | 53.42282 | -6.26599 | 211 ft | 25 kts | 96° |
| 2026-05-07 18:30 | 53.42266 | -6.26288 | 211 ft | 24 kts | 94° |
| 2026-05-07 18:31 | 53.42339 | -6.26035 | 211 ft | 27 kts | 46° |
| 2026-05-07 18:31 | 53.42477 | -6.25791 | 211 ft | 26 kts | 44° |
| 2026-05-07 18:31 | 53.42615 | -6.25557 | 216 ft | 31 kts | 46° |
| 2026-05-07 18:31 | 53.42760 | -6.25312 | 211 ft | 25 kts | 46° |
| 2026-05-07 18:32 | 53.42860 | -6.25189 | 211 ft | 14 kts | 344° |
| 2026-05-07 18:32 | 53.42954 | -6.25212 | 218 ft | 8 kts | 42° |
| 2026-05-07 18:32 | 53.42958 | -6.25119 | 211 ft | 10 kts | 92° |
| 2026-05-07 18:32 | 53.43007 | -6.25074 | 214 ft | 6 kts | 2° |
| 2026-05-07 18:33 | 53.43018 | -6.25073 | 211 ft | 0 kts | 3° |